KCMH

John Glenn Columbus International Airport

Columbus, Ohio, USA
METAR KCMH 172051Z 00000KT 10SM -RA SCT050 OVC075 06/01 A3011 RMK AO2 RAB11 SLP203 P0000 60000 T00560011 50002
Observed Flight Rules
Dec-17 @ 20:51 UTC (41 minutes ago) Visual Flight Rules
Wind Visibility Clouds Conditions
Calm 10 miles
  • Scattered at 5,000' AGL
  • Overcast at 7,500' AGL
  • Light Rain
Temperatures Readings Precipitation
Current 6°C / 43°F
Dewpoint 1°C / 34°F
Humidity 71%
Altimeter 30.11" Hg
Pressure 1020.3 hPa
Elevation 247
Current Rain 0.005
METAR KCMH 172051Z 00000KT 10SM -RA SCT050 OVC075 06/01 A3011 RMK AO2 RAB11 SLP203 P0000 60000 T00560011 50002
Observed Flight Rules
Dec-17 @ 20:51 UTC
(41 minutes ago)
VFR
Wind Visibility
Calm 10 miles
Clouds
  • Scattered at 5,000' AGL
  • Overcast at 7,500' AGL
Conditions
  • Light Rain
Temperature Dewpoint
6°C / 43°F 1°C / 34°F
Humidity Altimeter Pressure
71% 30.11" Hg 1020.3 hPa
Current Rain
0.005